Flight Track Log - Related Links

Times and Time Zones

All times are in EDT time to prevent confusion due to time zone crossing. See the KAP66 flight status page for this flight to view local times or setup timezone preferences in your user account.

Time Position Orientation Groundspeed Altitude Reporting Facility
EDT Latitude Longitude Course Direction KTS MPH feet Rate Location/Type
Tue 10:52:49 AM 42.2833 -71.0500 114° Southeast 118 136 2,000  Level KA90
Tue 10:53:49 AM 42.2500 -71.0500 180° South 123 142 2,600 524 Climbing KA90
Tue 10:54:55 AM 42.2167 -71.0167 143° Southeast 124 143 3,100 465 Climbing KA90
Tue 10:55:58 AM 42.1833 -70.9833 143° Southeast 127 146 3,600 488 Climbing KA90
Tue 10:56:58 AM 42.1667 -70.9500 124° Southeast 127 146 4,100 488 Climbing KA90
Tue 10:58:00 AM 42.1736 -70.8422 114° Southeast  Level Estimated
Tue 10:58:01 AM 42.1333 -70.9167 143° Southeast 135 155 4,600  Level KA90
Tue 10:59:04 AM 42.1000 -70.8833 143° Southeast 139 160 5,000 198 Climbing KA90
Tue 11:00:02 AM 42.0667 -70.8500 143° Southeast 148 170 5,000  Level KA90
Tue 11:00:55 AM 42.0333 -70.8167 143° Southeast 157 181 5,000  Level KA90
Tue 11:01:56 AM 42.0000 -70.7833 143° Southeast 157 181 5,000  Level KA90
Tue 11:03:08 AM 41.9667 -70.7500 143° Southeast 155 178 5,000  Level KA90
Tue 11:04:08 AM 41.9333 -70.7167 143° Southeast 152 175 5,000  Level KA90
Tue 11:05:01 AM 41.9000 -70.6833 143° Southeast 149 171 5,000  Level KA90
Tue 11:07:00 AM 41.8398 -70.6247 144° Southeast  Level Estimated
Tue 11:14:00 AM 41.6270 -70.4185 144° Southeast  Level Estimated
Tue 11:15:00 AM 41.5966 -70.3892 144° Southeast  Level Estimated
Tue 11:16:00 AM 41.5662 -70.3599 144° Southeast  Level Estimated
Tue 11:17:00 AM 41.5358 -70.3306 144° Southeast  Level Estimated
Tue 11:18:00 AM 41.5053 -70.3014 144° Southeast  Level Estimated
Tue 11:19:00 AM 41.4749 -70.2721 144° Southeast  Level Estimated
Tue 11:20:00 AM 41.4444 -70.2429 144° Southeast  Level Estimated
Tue 11:21:00 AM 41.4139 -70.2138 144° Southeast  Level Estimated
Tue 11:22:00 AM 41.3835 -70.1846 144° Southeast  Level Estimated
Tue 11:23:00 AM 41.3530 -70.1555 144° Southeast  Level Estimated
Tue 11:24:00 AM 41.3225 -70.1264 144° Southeast  Level Estimated
Tue 11:25:00 AM 41.2920 -70.0973 144° Southeast  Level Estimated
Tue 11:26:00 AM 41.2615 -70.0683 144° Southeast  Level Estimated
Tue 11:27:00 AM 41.2531 -70.0603 144° Southeast  Level Estimated
Tue 11:28:00 AM 41.2531 -70.0603 72° East  Level Estimated
Tue 11:29:00 AM 41.2531 -70.0603 72° East  Level Estimated
Tue 11:30:00 AM 41.2531 -70.0603 72° East  Level Estimated
Tue 11:31:00 AM 41.2531 -70.0603 72° East  Level Estimated

Login

Don't have an account? Register now (free) for customized features, flight alerts, and more!